sensor_id;sensor_type;location;lat;lon;timestamp;P1;durP1;ratioP1;P2;durP2;ratioP2
70313;SDS011;71040;47.526;18.986;2024-01-30T00:00:23;14.60;;;9.38;;
70313;SDS011;71040;47.526;18.986;2024-01-30T00:05:23;16.57;;;9.90;;
70313;SDS011;71040;47.526;18.986;2024-01-30T00:10:26;14.27;;;8.83;;
70313;SDS011;71040;47.526;18.986;2024-01-30T00:15:29;13.77;;;8.77;;
70313;SDS011;71040;47.526;18.986;2024-01-30T00:20:31;14.07;;;8.38;;
70313;SDS011;71040;47.526;18.986;2024-01-30T00:25:32;13.93;;;8.63;;
70313;SDS011;71040;47.526;18.986;2024-01-30T00:30:33;14.00;;;9.07;;
70313;SDS011;71040;47.526;18.986;2024-01-30T00:35:33;15.33;;;9.50;;
70313;SDS011;71040;47.526;18.986;2024-01-30T00:40:34;13.93;;;8.63;;
70313;SDS011;71040;47.526;18.986;2024-01-30T00:45:34;12.10;;;8.20;;
70313;SDS011;71040;47.526;18.986;2024-01-30T00:50:35;13.30;;;8.55;;
70313;SDS011;71040;47.526;18.986;2024-01-30T00:55:35;13.10;;;8.05;;
70313;SDS011;71040;47.526;18.986;2024-01-30T01:00:38;11.02;;;8.07;;
70313;SDS011;71040;47.526;18.986;2024-01-30T01:05:39;13.32;;;8.43;;
70313;SDS011;71040;47.526;18.986;2024-01-30T01:10:39;13.07;;;8.82;;
70313;SDS011;71040;47.526;18.986;2024-01-30T01:15:40;14.63;;;8.80;;
70313;SDS011;71040;47.526;18.986;2024-01-30T01:20:42;11.98;;;7.95;;
70313;SDS011;71040;47.526;18.986;2024-01-30T01:25:43;14.90;;;8.80;;
70313;SDS011;71040;47.526;18.986;2024-01-30T01:30:43;12.13;;;7.87;;
70313;SDS011;71040;47.526;18.986;2024-01-30T01:35:44;14.05;;;8.05;;
70313;SDS011;71040;47.526;18.986;2024-01-30T01:40:47;11.82;;;7.82;;
70313;SDS011;71040;47.526;18.986;2024-01-30T01:45:47;12.57;;;7.90;;
70313;SDS011;71040;47.526;18.986;2024-01-30T01:50:47;11.90;;;7.43;;
70313;SDS011;71040;47.526;18.986;2024-01-30T01:56:10;13.45;;;7.68;;
70313;SDS011;71040;47.526;18.986;2024-01-30T02:01:20;13.65;;;7.78;;
70313;SDS011;71040;47.526;18.986;2024-01-30T02:06:21;12.57;;;7.35;;
70313;SDS011;71040;47.526;18.986;2024-01-30T02:11:25;12.88;;;7.78;;
70313;SDS011;71040;47.526;18.986;2024-01-30T02:16:28;12.20;;;7.13;;
70313;SDS011;71040;47.526;18.986;2024-01-30T02:21:32;12.50;;;7.57;;
70313;SDS011;71040;47.526;18.986;2024-01-30T02:26:33;11.10;;;7.20;;
70313;SDS011;71040;47.526;18.986;2024-01-30T02:31:33;10.27;;;7.13;;
70313;SDS011;71040;47.526;18.986;2024-01-30T02:36:33;10.83;;;6.73;;
70313;SDS011;71040;47.526;18.986;2024-01-30T02:41:34;11.83;;;7.23;;
70313;SDS011;71040;47.526;18.986;2024-01-30T02:46:34;10.27;;;6.70;;
70313;SDS011;71040;47.526;18.986;2024-01-30T02:51:34;10.23;;;6.53;;
70313;SDS011;71040;47.526;18.986;2024-01-30T02:56:37;11.75;;;6.95;;
70313;SDS011;71040;47.526;18.986;2024-01-30T03:01:43;11.20;;;7.15;;
70313;SDS011;71040;47.526;18.986;2024-01-30T03:06:44;10.55;;;6.22;;
70313;SDS011;71040;47.526;18.986;2024-01-30T03:11:47;9.98;;;6.72;;
70313;SDS011;71040;47.526;18.986;2024-01-30T03:16:47;12.97;;;7.23;;
70313;SDS011;71040;47.526;18.986;2024-01-30T03:21:47;10.17;;;6.33;;
70313;SDS011;71040;47.526;18.986;2024-01-30T03:26:48;12.07;;;6.70;;
70313;SDS011;71040;47.526;18.986;2024-01-30T03:31:50;11.38;;;6.65;;
70313;SDS011;71040;47.526;18.986;2024-01-30T03:36:51;10.87;;;7.20;;
70313;SDS011;71040;47.526;18.986;2024-01-30T03:41:54;12.27;;;7.43;;
70313;SDS011;71040;47.526;18.986;2024-01-30T03:46:54;12.43;;;6.90;;
70313;SDS011;71040;47.526;18.986;2024-01-30T03:51:54;11.03;;;6.60;;
70313;SDS011;71040;47.526;18.986;2024-01-30T03:56:57;8.98;;;6.22;;
70313;SDS011;71040;47.526;18.986;2024-01-30T04:01:58;11.40;;;6.40;;
70313;SDS011;71040;47.526;18.986;2024-01-30T04:06:59;10.13;;;6.70;;
70313;SDS011;71040;47.526;18.986;2024-01-30T04:12:05;12.32;;;7.25;;
70313;SDS011;71040;47.526;18.986;2024-01-30T04:17:05;12.25;;;6.57;;
70313;SDS011;71040;47.526;18.986;2024-01-30T04:22:06;11.00;;;6.93;;
70313;SDS011;71040;47.526;18.986;2024-01-30T04:27:06;9.07;;;5.83;;
70313;SDS011;71040;47.526;18.986;2024-01-30T04:32:07;9.57;;;6.27;;
70313;SDS011;71040;47.526;18.986;2024-01-30T04:37:07;11.10;;;6.50;;
70313;SDS011;71040;47.526;18.986;2024-01-30T04:42:08;10.67;;;6.27;;
70313;SDS011;71040;47.526;18.986;2024-01-30T04:47:08;10.87;;;6.33;;
70313;SDS011;71040;47.526;18.986;2024-01-30T04:52:11;11.77;;;6.57;;
70313;SDS011;71040;47.526;18.986;2024-01-30T04:57:11;9.48;;;5.80;;
70313;SDS011;71040;47.526;18.986;2024-01-30T05:02:12;11.43;;;6.55;;
70313;SDS011;71040;47.526;18.986;2024-01-30T05:07:12;9.13;;;5.93;;
70313;SDS011;71040;47.526;18.986;2024-01-30T05:12:15;12.35;;;6.70;;
70313;SDS011;71040;47.526;18.986;2024-01-30T05:17:15;10.07;;;6.03;;
70313;SDS011;71040;47.526;18.986;2024-01-30T05:22:18;10.52;;;6.63;;
70313;SDS011;71040;47.526;18.986;2024-01-30T05:27:21;10.40;;;6.13;;
70313;SDS011;71040;47.526;18.986;2024-01-30T05:32:24;10.20;;;6.30;;
70313;SDS011;71040;47.526;18.986;2024-01-30T05:37:27;11.47;;;6.60;;
70313;SDS011;71040;47.526;18.986;2024-01-30T05:42:27;9.35;;;5.93;;
70313;SDS011;71040;47.526;18.986;2024-01-30T05:47:28;9.53;;;6.43;;
70313;SDS011;71040;47.526;18.986;2024-01-30T05:52:28;11.07;;;6.23;;
70313;SDS011;71040;47.526;18.986;2024-01-30T05:57:28;11.40;;;6.30;;
70313;SDS011;71040;47.526;18.986;2024-01-30T06:02:31;10.02;;;5.93;;
70313;SDS011;71040;47.526;18.986;2024-01-30T06:07:34;10.50;;;6.53;;
70313;SDS011;71040;47.526;18.986;2024-01-30T06:12:40;9.20;;;6.18;;
70313;SDS011;71040;47.526;18.986;2024-01-30T06:17:40;10.52;;;6.22;;
70313;SDS011;71040;47.526;18.986;2024-01-30T06:22:43;9.23;;;5.97;;
70313;SDS011;71040;47.526;18.986;2024-01-30T06:27:45;11.00;;;6.18;;
70313;SDS011;71040;47.526;18.986;2024-01-30T06:32:46;10.23;;;6.43;;
70313;SDS011;71040;47.526;18.986;2024-01-30T06:37:46;10.07;;;5.97;;
70313;SDS011;71040;47.526;18.986;2024-01-30T06:42:46;10.50;;;6.07;;
70313;SDS011;71040;47.526;18.986;2024-01-30T06:47:47;10.93;;;5.93;;
70313;SDS011;71040;47.526;18.986;2024-01-30T06:52:47;9.90;;;6.30;;
70313;SDS011;71040;47.526;18.986;2024-01-30T06:57:50;10.35;;;6.47;;
70313;SDS011;71040;47.526;18.986;2024-01-30T07:02:51;11.97;;;6.13;;
70313;SDS011;71040;47.526;18.986;2024-01-30T07:07:51;9.20;;;6.10;;
70313;SDS011;71040;47.526;18.986;2024-01-30T07:12:54;10.05;;;5.60;;
70313;SDS011;71040;47.526;18.986;2024-01-30T07:18:00;11.65;;;6.43;;
70313;SDS011;71040;47.526;18.986;2024-01-30T07:23:00;9.83;;;6.13;;
70313;SDS011;71040;47.526;18.986;2024-01-30T07:28:01;9.40;;;6.43;;
70313;SDS011;71040;47.526;18.986;2024-01-30T07:33:01;9.93;;;6.00;;
70313;SDS011;71040;47.526;18.986;2024-01-30T07:38:04;8.15;;;5.30;;
70313;SDS011;71040;47.526;18.986;2024-01-30T07:43:04;9.50;;;6.00;;
70313;SDS011;71040;47.526;18.986;2024-01-30T07:48:08;8.93;;;5.93;;
70313;SDS011;71040;47.526;18.986;2024-01-30T07:53:08;9.23;;;5.93;;
70313;SDS011;71040;47.526;18.986;2024-01-30T07:58:09;14.82;;;8.00;;
70313;SDS011;71040;47.526;18.986;2024-01-30T08:03:10;18.58;;;9.95;;
70313;SDS011;71040;47.526;18.986;2024-01-30T08:08:10;17.93;;;10.60;;
70313;SDS011;71040;47.526;18.986;2024-01-30T08:13:13;18.75;;;11.45;;
70313;SDS011;71040;47.526;18.986;2024-01-30T08:18:13;19.23;;;10.97;;
70313;SDS011;71040;47.526;18.986;2024-01-30T08:23:16;21.20;;;11.40;;
70313;SDS011;71040;47.526;18.986;2024-01-30T08:28:19;19.90;;;11.20;;
70313;SDS011;71040;47.526;18.986;2024-01-30T08:33:20;20.77;;;11.53;;
70313;SDS011;71040;47.526;18.986;2024-01-30T08:38:20;20.30;;;11.87;;
70313;SDS011;71040;47.526;18.986;2024-01-30T08:43:20;22.30;;;12.40;;
70313;SDS011;71040;47.526;18.986;2024-01-30T08:48:21;21.08;;;12.15;;
70313;SDS011;71040;47.526;18.986;2024-01-30T08:53:22;23.92;;;12.18;;
70313;SDS011;71040;47.526;18.986;2024-01-30T08:58:25;19.38;;;11.35;;
70313;SDS011;71040;47.526;18.986;2024-01-30T09:03:28;23.33;;;11.45;;
70313;SDS011;71040;47.526;18.986;2024-01-30T09:08:31;22.17;;;11.85;;
70313;SDS011;71040;47.526;18.986;2024-01-30T09:13:31;23.58;;;12.40;;
70313;SDS011;71040;47.526;18.986;2024-01-30T09:18:32;20.85;;;13.15;;
70313;SDS011;71040;47.526;18.986;2024-01-30T09:23:39;18.73;;;10.93;;
70313;SDS011;71040;47.526;18.986;2024-01-30T09:28:40;21.87;;;12.43;;
70313;SDS011;71040;47.526;18.986;2024-01-30T09:33:42;17.83;;;10.75;;
70313;SDS011;71040;47.526;18.986;2024-01-30T09:38:44;21.10;;;11.40;;
70313;SDS011;71040;47.526;18.986;2024-01-30T09:43:55;19.42;;;11.27;;
70313;SDS011;71040;47.526;18.986;2024-01-30T09:49:00;19.63;;;10.87;;
70313;SDS011;71040;47.526;18.986;2024-01-30T09:54:04;18.98;;;10.85;;
70313;SDS011;71040;47.526;18.986;2024-01-30T09:59:08;20.55;;;11.57;;
70313;SDS011;71040;47.526;18.986;2024-01-30T10:04:08;21.20;;;11.93;;
70313;SDS011;71040;47.526;18.986;2024-01-30T10:09:09;22.42;;;11.55;;
70313;SDS011;71040;47.526;18.986;2024-01-30T10:14:13;19.67;;;10.93;;
70313;SDS011;71040;47.526;18.986;2024-01-30T10:19:16;18.30;;;10.63;;
70313;SDS011;71040;47.526;18.986;2024-01-30T10:24:18;18.25;;;10.75;;
70313;SDS011;71040;47.526;18.986;2024-01-30T10:29:24;19.20;;;10.90;;
70313;SDS011;71040;47.526;18.986;2024-01-30T10:34:24;19.50;;;11.05;;
70313;SDS011;71040;47.526;18.986;2024-01-30T10:39:25;15.70;;;10.25;;
70313;SDS011;71040;47.526;18.986;2024-01-30T10:44:29;18.80;;;10.13;;
70313;SDS011;71040;47.526;18.986;2024-01-30T10:49:33;15.93;;;10.35;;
70313;SDS011;71040;47.526;18.986;2024-01-30T10:54:37;17.45;;;10.10;;
70313;SDS011;71040;47.526;18.986;2024-01-30T10:59:37;15.93;;;9.32;;
70313;SDS011;71040;47.526;18.986;2024-01-30T11:04:40;16.60;;;10.05;;
70313;SDS011;71040;47.526;18.986;2024-01-30T11:09:47;19.17;;;10.55;;
70313;SDS011;71040;47.526;18.986;2024-01-30T11:15:07;14.80;;;8.88;;
70313;SDS011;71040;47.526;18.986;2024-01-30T11:20:14;15.43;;;9.57;;
70313;SDS011;71040;47.526;18.986;2024-01-30T11:25:19;19.17;;;11.13;;
70313;SDS011;71040;47.526;18.986;2024-01-30T11:30:26;14.68;;;9.32;;
70313;SDS011;71040;47.526;18.986;2024-01-30T11:35:30;15.18;;;9.98;;
70313;SDS011;71040;47.526;18.986;2024-01-30T11:40:35;15.15;;;8.57;;
70313;SDS011;71040;47.526;18.986;2024-01-30T11:45:40;13.77;;;8.55;;
70313;SDS011;71040;47.526;18.986;2024-01-30T11:50:41;15.93;;;8.77;;
70313;SDS011;71040;47.526;18.986;2024-01-30T11:55:41;13.82;;;8.02;;
70313;SDS011;71040;47.526;18.986;2024-01-30T12:00:42;14.40;;;8.73;;
70313;SDS011;71040;47.526;18.986;2024-01-30T12:05:42;13.40;;;8.50;;
70313;SDS011;71040;47.526;18.986;2024-01-30T12:10:46;12.63;;;7.88;;
70313;SDS011;71040;47.526;18.986;2024-01-30T12:15:46;14.50;;;8.77;;
70313;SDS011;71040;47.526;18.986;2024-01-30T12:20:56;11.45;;;7.72;;
70313;SDS011;71040;47.526;18.986;2024-01-30T12:25:58;14.63;;;7.72;;
70313;SDS011;71040;47.526;18.986;2024-01-30T12:31:02;13.65;;;8.55;;
70313;SDS011;71040;47.526;18.986;2024-01-30T12:36:03;12.10;;;7.63;;
70313;SDS011;71040;47.526;18.986;2024-01-30T12:41:05;13.77;;;8.15;;
70313;SDS011;71040;47.526;18.986;2024-01-30T12:46:07;13.43;;;7.80;;
70313;SDS011;71040;47.526;18.986;2024-01-30T12:51:07;9.98;;;6.90;;
70313;SDS011;71040;47.526;18.986;2024-01-30T12:56:13;11.88;;;7.40;;
70313;SDS011;71040;47.526;18.986;2024-01-30T13:01:14;9.85;;;6.68;;
70313;SDS011;71040;47.526;18.986;2024-01-30T13:06:17;11.10;;;6.93;;
70313;SDS011;71040;47.526;18.986;2024-01-30T13:11:17;12.60;;;7.13;;
70313;SDS011;71040;47.526;18.986;2024-01-30T13:16:18;12.52;;;6.75;;
70313;SDS011;71040;47.526;18.986;2024-01-30T13:21:20;10.90;;;6.88;;
70313;SDS011;71040;47.526;18.986;2024-01-30T13:26:24;11.10;;;6.85;;
70313;SDS011;71040;47.526;18.986;2024-01-30T13:31:27;11.27;;;6.78;;
70313;SDS011;71040;47.526;18.986;2024-01-30T13:36:30;11.63;;;6.88;;
70313;SDS011;71040;47.526;18.986;2024-01-30T13:41:30;10.77;;;6.67;;
70313;SDS011;71040;47.526;18.986;2024-01-30T13:46:30;10.32;;;6.25;;
70313;SDS011;71040;47.526;18.986;2024-01-30T13:51:31;10.10;;;6.65;;
70313;SDS011;71040;47.526;18.986;2024-01-30T13:56:34;9.98;;;6.00;;
70313;SDS011;71040;47.526;18.986;2024-01-30T14:01:39;9.55;;;5.60;;
70313;SDS011;71040;47.526;18.986;2024-01-30T14:06:41;10.45;;;5.85;;
70313;SDS011;71040;47.526;18.986;2024-01-30T14:11:44;9.27;;;5.90;;
70313;SDS011;71040;47.526;18.986;2024-01-30T14:16:47;8.82;;;5.60;;
70313;SDS011;71040;47.526;18.986;2024-01-30T14:21:47;8.37;;;5.40;;
70313;SDS011;71040;47.526;18.986;2024-01-30T14:26:48;9.37;;;5.63;;
70313;SDS011;71040;47.526;18.986;2024-01-30T14:31:51;8.23;;;5.50;;
70313;SDS011;71040;47.526;18.986;2024-01-30T14:36:51;8.33;;;5.20;;
70313;SDS011;71040;47.526;18.986;2024-01-30T14:41:54;8.07;;;5.63;;
70313;SDS011;71040;47.526;18.986;2024-01-30T14:46:57;8.35;;;5.18;;
70313;SDS011;71040;47.526;18.986;2024-01-30T14:51:57;7.80;;;5.00;;
70313;SDS011;71040;47.526;18.986;2024-01-30T14:56:58;7.03;;;4.97;;
70313;SDS011;71040;47.526;18.986;2024-01-30T15:01:59;6.88;;;4.18;;
70313;SDS011;71040;47.526;18.986;2024-01-30T15:07:00;6.65;;;4.63;;
70313;SDS011;71040;47.526;18.986;2024-01-30T15:12:01;6.53;;;4.43;;
70313;SDS011;71040;47.526;18.986;2024-01-30T15:17:01;8.05;;;4.70;;
70313;SDS011;71040;47.526;18.986;2024-01-30T15:22:02;7.25;;;4.75;;
70313;SDS011;71040;47.526;18.986;2024-01-30T15:27:02;6.70;;;4.28;;
70313;SDS011;71040;47.526;18.986;2024-01-30T15:32:03;7.38;;;4.63;;
70313;SDS011;71040;47.526;18.986;2024-01-30T15:37:06;8.88;;;5.50;;
70313;SDS011;71040;47.526;18.986;2024-01-30T15:42:06;10.23;;;5.38;;
70313;SDS011;71040;47.526;18.986;2024-01-30T15:47:10;10.75;;;5.28;;
70313;SDS011;71040;47.526;18.986;2024-01-30T15:52:10;7.00;;;4.90;;
70313;SDS011;71040;47.526;18.986;2024-01-30T15:57:14;10.85;;;5.53;;
70313;SDS011;71040;47.526;18.986;2024-01-30T16:02:14;8.30;;;5.53;;
70313;SDS011;71040;47.526;18.986;2024-01-30T16:07:15;9.35;;;5.20;;
70313;SDS011;71040;47.526;18.986;2024-01-30T16:12:15;7.70;;;5.00;;
70313;SDS011;71040;47.526;18.986;2024-01-30T16:17:15;9.10;;;6.10;;
70313;SDS011;71040;47.526;18.986;2024-01-30T16:22:18;10.18;;;5.47;;
70313;SDS011;71040;47.526;18.986;2024-01-30T16:27:18;13.80;;;6.80;;
70313;SDS011;71040;47.526;18.986;2024-01-30T16:32:19;7.30;;;4.83;;
70313;SDS011;71040;47.526;18.986;2024-01-30T16:37:24;10.65;;;6.07;;
70313;SDS011;71040;47.526;18.986;2024-01-30T16:42:25;9.45;;;5.53;;
70313;SDS011;71040;47.526;18.986;2024-01-30T16:47:25;6.67;;;4.97;;
70313;SDS011;71040;47.526;18.986;2024-01-30T16:52:26;7.70;;;5.20;;
70313;SDS011;71040;47.526;18.986;2024-01-30T16:57:26;7.75;;;5.25;;
70313;SDS011;71040;47.526;18.986;2024-01-30T17:02:31;7.63;;;5.25;;
70313;SDS011;71040;47.526;18.986;2024-01-30T17:07:32;7.65;;;5.30;;
70313;SDS011;71040;47.526;18.986;2024-01-30T17:12:35;8.18;;;5.65;;
70313;SDS011;71040;47.526;18.986;2024-01-30T17:17:35;8.73;;;5.17;;
70313;SDS011;71040;47.526;18.986;2024-01-30T17:22:36;8.68;;;5.50;;
70313;SDS011;71040;47.526;18.986;2024-01-30T17:27:37;10.32;;;6.53;;
70313;SDS011;71040;47.526;18.986;2024-01-30T17:32:37;12.10;;;6.20;;
70313;SDS011;71040;47.526;18.986;2024-01-30T17:37:37;9.87;;;5.70;;
70313;SDS011;71040;47.526;18.986;2024-01-30T17:42:38;8.65;;;5.82;;
70313;SDS011;71040;47.526;18.986;2024-01-30T17:47:38;9.90;;;6.10;;
70313;SDS011;71040;47.526;18.986;2024-01-30T17:52:39;9.60;;;6.43;;
70313;SDS011;71040;47.526;18.986;2024-01-30T17:57:39;13.20;;;6.87;;
70313;SDS011;71040;47.526;18.986;2024-01-30T18:02:40;11.50;;;7.10;;
70313;SDS011;71040;47.526;18.986;2024-01-30T18:07:46;9.50;;;6.53;;
70313;SDS011;71040;47.526;18.986;2024-01-30T18:12:46;10.13;;;6.53;;
70313;SDS011;71040;47.526;18.986;2024-01-30T18:17:47;12.65;;;7.13;;
70313;SDS011;71040;47.526;18.986;2024-01-30T18:22:50;11.40;;;6.70;;
70313;SDS011;71040;47.526;18.986;2024-01-30T18:27:53;8.48;;;6.03;;
70313;SDS011;71040;47.526;18.986;2024-01-30T18:32:56;10.00;;;6.57;;
70313;SDS011;71040;47.526;18.986;2024-01-30T18:37:56;11.73;;;7.50;;
70313;SDS011;71040;47.526;18.986;2024-01-30T18:43:05;9.38;;;6.57;;
70313;SDS011;71040;47.526;18.986;2024-01-30T18:48:09;13.48;;;7.68;;
70313;SDS011;71040;47.526;18.986;2024-01-30T18:53:09;10.82;;;7.20;;
70313;SDS011;71040;47.526;18.986;2024-01-30T18:58:10;12.03;;;7.37;;
70313;SDS011;71040;47.526;18.986;2024-01-30T19:03:11;13.35;;;8.25;;
70313;SDS011;71040;47.526;18.986;2024-01-30T19:08:11;12.05;;;7.93;;
70313;SDS011;71040;47.526;18.986;2024-01-30T19:13:15;17.30;;;8.25;;
70313;SDS011;71040;47.526;18.986;2024-01-30T19:18:21;13.35;;;7.85;;
70313;SDS011;71040;47.526;18.986;2024-01-30T19:23:24;12.40;;;8.25;;
70313;SDS011;71040;47.526;18.986;2024-01-30T19:28:31;13.38;;;8.23;;
70313;SDS011;71040;47.526;18.986;2024-01-30T19:33:34;15.55;;;8.77;;
70313;SDS011;71040;47.526;18.986;2024-01-30T19:38:37;13.57;;;8.75;;
70313;SDS011;71040;47.526;18.986;2024-01-30T19:43:37;13.00;;;7.80;;
70313;SDS011;71040;47.526;18.986;2024-01-30T19:48:38;15.10;;;9.38;;
70313;SDS011;71040;47.526;18.986;2024-01-30T19:53:39;15.10;;;9.53;;
70313;SDS011;71040;47.526;18.986;2024-01-30T19:58:39;16.52;;;9.57;;
70313;SDS011;71040;47.526;18.986;2024-01-30T20:03:39;16.33;;;9.20;;
70313;SDS011;71040;47.526;18.986;2024-01-30T20:08:42;14.40;;;8.90;;
70313;SDS011;71040;47.526;18.986;2024-01-30T20:13:42;18.20;;;10.03;;
70313;SDS011;71040;47.526;18.986;2024-01-30T20:18:43;18.88;;;11.20;;
70313;SDS011;71040;47.526;18.986;2024-01-30T20:23:43;14.67;;;9.47;;
70313;SDS011;71040;47.526;18.986;2024-01-30T20:28:44;17.03;;;9.30;;
70313;SDS011;71040;47.526;18.986;2024-01-30T20:33:44;17.33;;;10.47;;
70313;SDS011;71040;47.526;18.986;2024-01-30T20:38:47;16.20;;;9.98;;
70313;SDS011;71040;47.526;18.986;2024-01-30T20:43:49;17.23;;;10.27;;
70313;SDS011;71040;47.526;18.986;2024-01-30T20:48:52;17.17;;;10.43;;
70313;SDS011;71040;47.526;18.986;2024-01-30T20:53:55;16.73;;;10.68;;
70313;SDS011;71040;47.526;18.986;2024-01-30T20:58:58;17.23;;;11.03;;
70313;SDS011;71040;47.526;18.986;2024-01-30T21:03:59;17.25;;;10.85;;
70313;SDS011;71040;47.526;18.986;2024-01-30T21:09:01;16.38;;;10.48;;
70313;SDS011;71040;47.526;18.986;2024-01-30T21:14:03;18.17;;;11.02;;
70313;SDS011;71040;47.526;18.986;2024-01-30T21:19:06;16.75;;;10.80;;
70313;SDS011;71040;47.526;18.986;2024-01-30T21:24:12;19.92;;;11.15;;
70313;SDS011;71040;47.526;18.986;2024-01-30T21:29:12;19.23;;;11.55;;
70313;SDS011;71040;47.526;18.986;2024-01-30T21:34:13;17.88;;;11.63;;
70313;SDS011;71040;47.526;18.986;2024-01-30T21:39:14;17.38;;;11.23;;
70313;SDS011;71040;47.526;18.986;2024-01-30T21:44:14;18.23;;;11.55;;
70313;SDS011;71040;47.526;18.986;2024-01-30T21:49:15;21.00;;;11.93;;
70313;SDS011;71040;47.526;18.986;2024-01-30T21:54:17;19.63;;;11.85;;
70313;SDS011;71040;47.526;18.986;2024-01-30T21:59:22;18.42;;;12.07;;
70313;SDS011;71040;47.526;18.986;2024-01-30T22:04:23;18.45;;;11.27;;
70313;SDS011;71040;47.526;18.986;2024-01-30T22:09:26;21.90;;;12.65;;
70313;SDS011;71040;47.526;18.986;2024-01-30T22:14:27;22.13;;;13.02;;
70313;SDS011;71040;47.526;18.986;2024-01-30T22:19:27;21.70;;;12.33;;
70313;SDS011;71040;47.526;18.986;2024-01-30T22:24:27;20.60;;;11.77;;
70313;SDS011;71040;47.526;18.986;2024-01-30T22:29:28;18.23;;;12.43;;
70313;SDS011;71040;47.526;18.986;2024-01-30T22:34:30;21.48;;;12.90;;
70313;SDS011;71040;47.526;18.986;2024-01-30T22:39:33;19.25;;;12.93;;
70313;SDS011;71040;47.526;18.986;2024-01-30T22:44:34;23.47;;;13.03;;
70313;SDS011;71040;47.526;18.986;2024-01-30T22:49:34;20.83;;;12.80;;
70313;SDS011;71040;47.526;18.986;2024-01-30T22:54:37;21.45;;;13.25;;
70313;SDS011;71040;47.526;18.986;2024-01-30T22:59:37;20.17;;;13.20;;
70313;SDS011;71040;47.526;18.986;2024-01-30T23:04:40;21.17;;;13.23;;
70313;SDS011;71040;47.526;18.986;2024-01-30T23:09:40;22.45;;;14.02;;
70313;SDS011;71040;47.526;18.986;2024-01-30T23:14:44;20.33;;;13.90;;
70313;SDS011;71040;47.526;18.986;2024-01-30T23:19:44;20.40;;;13.38;;
70313;SDS011;71040;47.526;18.986;2024-01-30T23:24:45;22.38;;;13.82;;
70313;SDS011;71040;47.526;18.986;2024-01-30T23:29:45;21.67;;;13.60;;
70313;SDS011;71040;47.526;18.986;2024-01-30T23:34:53;21.67;;;14.10;;
70313;SDS011;71040;47.526;18.986;2024-01-30T23:39:53;21.15;;;13.43;;
70313;SDS011;71040;47.526;18.986;2024-01-30T23:44:53;21.10;;;12.73;;
70313;SDS011;71040;47.526;18.986;2024-01-30T23:49:54;21.17;;;13.10;;
70313;SDS011;71040;47.526;18.986;2024-01-30T23:54:54;21.30;;;13.57;;
70313;SDS011;71040;47.526;18.986;2024-01-30T23:59:55;19.73;;;13.20;;
